sensor_id;sensor_type;location;lat;lon;timestamp;P1;durP1;ratioP1;P2;durP2;ratioP2
12214;SDS011;6170;42.206;24.142;2023-03-01T00:02:05;10.85;;;7.05;;
12214;SDS011;6170;42.206;24.142;2023-03-01T00:04:34;9.82;;;6.88;;
12214;SDS011;6170;42.206;24.142;2023-03-01T00:07:01;9.25;;;6.72;;
12214;SDS011;6170;42.206;24.142;2023-03-01T00:09:28;10.70;;;7.18;;
12214;SDS011;6170;42.206;24.142;2023-03-01T00:11:55;11.57;;;7.07;;
12214;SDS011;6170;42.206;24.142;2023-03-01T00:14:23;12.38;;;6.95;;
12214;SDS011;6170;42.206;24.142;2023-03-01T00:16:50;8.43;;;6.10;;
12214;SDS011;6170;42.206;24.142;2023-03-01T00:19:18;9.55;;;6.13;;
12214;SDS011;6170;42.206;24.142;2023-03-01T00:21:48;9.27;;;6.30;;
12214;SDS011;6170;42.206;24.142;2023-03-01T00:24:15;9.68;;;6.13;;
12214;SDS011;6170;42.206;24.142;2023-03-01T00:26:42;8.93;;;5.82;;
12214;SDS011;6170;42.206;24.142;2023-03-01T00:29:09;8.60;;;5.63;;
12214;SDS011;6170;42.206;24.142;2023-03-01T00:31:37;10.52;;;6.03;;
12214;SDS011;6170;42.206;24.142;2023-03-01T00:34:04;9.15;;;5.80;;
12214;SDS011;6170;42.206;24.142;2023-03-01T00:36:32;9.00;;;6.05;;
12214;SDS011;6170;42.206;24.142;2023-03-01T00:39:03;9.48;;;6.40;;
12214;SDS011;6170;42.206;24.142;2023-03-01T00:41:31;9.55;;;6.30;;
12214;SDS011;6170;42.206;24.142;2023-03-01T00:43:59;9.57;;;6.85;;
12214;SDS011;6170;42.206;24.142;2023-03-01T00:46:26;10.55;;;7.15;;
12214;SDS011;6170;42.206;24.142;2023-03-01T00:48:55;11.52;;;7.60;;
12214;SDS011;6170;42.206;24.142;2023-03-01T00:51:23;11.25;;;7.45;;
12214;SDS011;6170;42.206;24.142;2023-03-01T00:53:52;12.60;;;8.07;;
12214;SDS011;6170;42.206;24.142;2023-03-01T00:56:21;12.50;;;7.53;;
12214;SDS011;6170;42.206;24.142;2023-03-01T00:58:49;12.20;;;7.15;;
12214;SDS011;6170;42.206;24.142;2023-03-01T01:01:17;11.50;;;8.00;;
12214;SDS011;6170;42.206;24.142;2023-03-01T01:03:46;10.50;;;7.13;;
12214;SDS011;6170;42.206;24.142;2023-03-01T01:06:15;11.60;;;7.85;;
12214;SDS011;6170;42.206;24.142;2023-03-01T01:08:43;11.70;;;7.50;;
12214;SDS011;6170;42.206;24.142;2023-03-01T01:11:11;12.73;;;7.50;;
12214;SDS011;6170;42.206;24.142;2023-03-01T01:13:39;11.35;;;8.18;;
12214;SDS011;6170;42.206;24.142;2023-03-01T01:16:07;10.25;;;7.05;;
12214;SDS011;6170;42.206;24.142;2023-03-01T01:18:34;11.20;;;7.57;;
12214;SDS011;6170;42.206;24.142;2023-03-01T01:21:05;9.65;;;6.78;;
12214;SDS011;6170;42.206;24.142;2023-03-01T01:23:33;11.73;;;8.20;;
12214;SDS011;6170;42.206;24.142;2023-03-01T01:26:04;11.88;;;7.55;;
12214;SDS011;6170;42.206;24.142;2023-03-01T01:28:32;9.93;;;7.10;;
12214;SDS011;6170;42.206;24.142;2023-03-01T01:31:00;10.35;;;7.30;;
12214;SDS011;6170;42.206;24.142;2023-03-01T01:33:27;9.57;;;6.97;;
12214;SDS011;6170;42.206;24.142;2023-03-01T01:35:54;11.60;;;7.63;;
12214;SDS011;6170;42.206;24.142;2023-03-01T01:38:21;10.23;;;7.50;;
12214;SDS011;6170;42.206;24.142;2023-03-01T01:40:48;11.10;;;7.20;;
12214;SDS011;6170;42.206;24.142;2023-03-01T01:43:18;10.18;;;7.03;;
12214;SDS011;6170;42.206;24.142;2023-03-01T01:45:47;10.30;;;7.35;;
12214;SDS011;6170;42.206;24.142;2023-03-01T01:48:16;9.20;;;6.95;;
12214;SDS011;6170;42.206;24.142;2023-03-01T01:50:47;9.73;;;7.60;;
12214;SDS011;6170;42.206;24.142;2023-03-01T01:53:20;10.43;;;7.32;;
12214;SDS011;6170;42.206;24.142;2023-03-01T01:55:48;10.35;;;7.22;;
12214;SDS011;6170;42.206;24.142;2023-03-01T01:58:19;9.68;;;6.90;;
12214;SDS011;6170;42.206;24.142;2023-03-01T02:00:48;8.98;;;6.57;;
12214;SDS011;6170;42.206;24.142;2023-03-01T02:03:19;9.60;;;6.65;;
12214;SDS011;6170;42.206;24.142;2023-03-01T02:05:50;9.88;;;6.72;;
12214;SDS011;6170;42.206;24.142;2023-03-01T02:08:22;10.90;;;7.45;;
12214;SDS011;6170;42.206;24.142;2023-03-01T02:10:53;11.23;;;7.45;;
12214;SDS011;6170;42.206;24.142;2023-03-01T02:13:22;14.60;;;7.75;;
12214;SDS011;6170;42.206;24.142;2023-03-01T02:15:49;9.25;;;6.45;;
12214;SDS011;6170;42.206;24.142;2023-03-01T02:18:18;12.50;;;7.57;;
12214;SDS011;6170;42.206;24.142;2023-03-01T02:20:49;9.70;;;6.85;;
12214;SDS011;6170;42.206;24.142;2023-03-01T02:23:27;11.02;;;7.40;;
12214;SDS011;6170;42.206;24.142;2023-03-01T02:25:56;10.68;;;7.30;;
12214;SDS011;6170;42.206;24.142;2023-03-01T02:28:33;11.32;;;7.63;;
12214;SDS011;6170;42.206;24.142;2023-03-01T02:31:02;9.32;;;6.57;;
12214;SDS011;6170;42.206;24.142;2023-03-01T02:33:48;8.63;;;6.45;;
12214;SDS011;6170;42.206;24.142;2023-03-01T02:36:15;11.55;;;7.43;;
12214;SDS011;6170;42.206;24.142;2023-03-01T02:38:46;10.23;;;6.63;;
12214;SDS011;6170;42.206;24.142;2023-03-01T02:41:15;9.85;;;6.72;;
12214;SDS011;6170;42.206;24.142;2023-03-01T02:43:45;10.00;;;7.10;;
12214;SDS011;6170;42.206;24.142;2023-03-01T02:46:16;10.45;;;7.15;;
12214;SDS011;6170;42.206;24.142;2023-03-01T02:48:45;13.25;;;8.25;;
12214;SDS011;6170;42.206;24.142;2023-03-01T02:51:20;12.48;;;8.55;;
12214;SDS011;6170;42.206;24.142;2023-03-01T02:53:58;12.25;;;8.75;;
12214;SDS011;6170;42.206;24.142;2023-03-01T02:56:33;11.52;;;7.80;;
12214;SDS011;6170;42.206;24.142;2023-03-01T02:59:02;21.05;;;8.80;;
12214;SDS011;6170;42.206;24.142;2023-03-01T03:01:30;14.35;;;8.98;;
12214;SDS011;6170;42.206;24.142;2023-03-01T03:04:02;12.15;;;7.95;;
12214;SDS011;6170;42.206;24.142;2023-03-01T03:06:30;12.23;;;8.68;;
12214;SDS011;6170;42.206;24.142;2023-03-01T03:08:57;13.95;;;8.32;;
12214;SDS011;6170;42.206;24.142;2023-03-01T03:11:24;13.88;;;8.30;;
12214;SDS011;6170;42.206;24.142;2023-03-01T03:13:51;12.18;;;8.77;;
12214;SDS011;6170;42.206;24.142;2023-03-01T03:16:20;14.40;;;8.73;;
12214;SDS011;6170;42.206;24.142;2023-03-01T03:18:47;14.57;;;8.77;;
12214;SDS011;6170;42.206;24.142;2023-03-01T03:21:15;15.00;;;9.48;;
12214;SDS011;6170;42.206;24.142;2023-03-01T03:23:42;15.48;;;9.70;;
12214;SDS011;6170;42.206;24.142;2023-03-01T03:26:10;17.77;;;10.05;;
12214;SDS011;6170;42.206;24.142;2023-03-01T03:28:40;17.80;;;10.75;;
12214;SDS011;6170;42.206;24.142;2023-03-01T03:31:07;19.00;;;11.27;;
12214;SDS011;6170;42.206;24.142;2023-03-01T03:33:36;16.65;;;10.82;;
12214;SDS011;6170;42.206;24.142;2023-03-01T03:36:03;17.73;;;11.18;;
12214;SDS011;6170;42.206;24.142;2023-03-01T03:38:31;18.80;;;11.18;;
12214;SDS011;6170;42.206;24.142;2023-03-01T03:41:02;16.13;;;10.13;;
12214;SDS011;6170;42.206;24.142;2023-03-01T03:43:31;15.10;;;9.65;;
12214;SDS011;6170;42.206;24.142;2023-03-01T03:45:59;17.25;;;10.80;;
12214;SDS011;6170;42.206;24.142;2023-03-01T03:48:26;16.90;;;10.52;;
12214;SDS011;6170;42.206;24.142;2023-03-01T03:50:55;16.20;;;10.55;;
12214;SDS011;6170;42.206;24.142;2023-03-01T03:53:24;15.05;;;9.30;;
12214;SDS011;6170;42.206;24.142;2023-03-01T03:55:55;16.20;;;9.98;;
12214;SDS011;6170;42.206;24.142;2023-03-01T03:58:23;18.42;;;11.20;;
12214;SDS011;6170;42.206;24.142;2023-03-01T04:00:52;15.68;;;9.95;;
12214;SDS011;6170;42.206;24.142;2023-03-01T04:03:22;17.25;;;10.90;;
12214;SDS011;6170;42.206;24.142;2023-03-01T04:05:50;16.27;;;10.77;;
12214;SDS011;6170;42.206;24.142;2023-03-01T04:08:20;18.35;;;11.13;;
12214;SDS011;6170;42.206;24.142;2023-03-01T04:10:48;18.85;;;11.73;;
12214;SDS011;6170;42.206;24.142;2023-03-01T04:13:17;24.13;;;13.13;;
12214;SDS011;6170;42.206;24.142;2023-03-01T04:15:45;20.35;;;12.45;;
12214;SDS011;6170;42.206;24.142;2023-03-01T04:18:14;26.92;;;13.68;;
12214;SDS011;6170;42.206;24.142;2023-03-01T04:20:42;22.00;;;13.65;;
12214;SDS011;6170;42.206;24.142;2023-03-01T04:23:11;22.20;;;12.98;;
12214;SDS011;6170;42.206;24.142;2023-03-01T04:25:42;26.80;;;14.98;;
12214;SDS011;6170;42.206;24.142;2023-03-01T04:28:14;27.40;;;14.20;;
12214;SDS011;6170;42.206;24.142;2023-03-01T04:30:41;19.20;;;12.23;;
12214;SDS011;6170;42.206;24.142;2023-03-01T04:33:09;25.88;;;13.73;;
12214;SDS011;6170;42.206;24.142;2023-03-01T04:35:37;21.67;;;11.95;;
12214;SDS011;6170;42.206;24.142;2023-03-01T04:38:05;19.20;;;11.57;;
12214;SDS011;6170;42.206;24.142;2023-03-01T04:40:33;20.52;;;10.85;;
12214;SDS011;6170;42.206;24.142;2023-03-01T04:43:02;20.98;;;12.13;;
12214;SDS011;6170;42.206;24.142;2023-03-01T04:45:31;20.23;;;11.43;;
12214;SDS011;6170;42.206;24.142;2023-03-01T04:47:59;19.13;;;11.18;;
12214;SDS011;6170;42.206;24.142;2023-03-01T04:50:26;18.95;;;11.98;;
12214;SDS011;6170;42.206;24.142;2023-03-01T04:52:54;22.48;;;12.23;;
12214;SDS011;6170;42.206;24.142;2023-03-01T04:55:23;20.65;;;11.80;;
12214;SDS011;6170;42.206;24.142;2023-03-01T04:57:51;21.23;;;12.05;;
12214;SDS011;6170;42.206;24.142;2023-03-01T05:00:21;20.88;;;12.30;;
12214;SDS011;6170;42.206;24.142;2023-03-01T05:02:49;17.42;;;10.10;;
12214;SDS011;6170;42.206;24.142;2023-03-01T05:05:20;18.10;;;10.48;;
12214;SDS011;6170;42.206;24.142;2023-03-01T05:07:51;22.60;;;11.10;;
12214;SDS011;6170;42.206;24.142;2023-03-01T05:10:22;16.25;;;10.93;;
12214;SDS011;6170;42.206;24.142;2023-03-01T05:12:50;18.35;;;10.98;;
12214;SDS011;6170;42.206;24.142;2023-03-01T05:15:18;18.40;;;11.18;;
12214;SDS011;6170;42.206;24.142;2023-03-01T05:17:50;19.75;;;10.55;;
12214;SDS011;6170;42.206;24.142;2023-03-01T05:20:18;19.40;;;11.23;;
12214;SDS011;6170;42.206;24.142;2023-03-01T05:22:48;18.60;;;11.50;;
12214;SDS011;6170;42.206;24.142;2023-03-01T05:25:15;20.10;;;11.77;;
12214;SDS011;6170;42.206;24.142;2023-03-01T05:27:42;21.95;;;11.48;;
12214;SDS011;6170;42.206;24.142;2023-03-01T05:30:09;16.45;;;10.52;;
12214;SDS011;6170;42.206;24.142;2023-03-01T05:32:41;17.63;;;11.00;;
12214;SDS011;6170;42.206;24.142;2023-03-01T05:35:10;19.15;;;10.90;;
12214;SDS011;6170;42.206;24.142;2023-03-01T05:37:42;17.55;;;10.63;;
12214;SDS011;6170;42.206;24.142;2023-03-01T05:40:12;18.70;;;11.07;;
12214;SDS011;6170;42.206;24.142;2023-03-01T05:42:42;18.00;;;11.15;;
12214;SDS011;6170;42.206;24.142;2023-03-01T05:45:10;19.55;;;11.38;;
12214;SDS011;6170;42.206;24.142;2023-03-01T05:47:38;18.55;;;10.30;;
12214;SDS011;6170;42.206;24.142;2023-03-01T05:50:11;19.95;;;11.48;;
12214;SDS011;6170;42.206;24.142;2023-03-01T05:52:43;17.75;;;11.10;;
12214;SDS011;6170;42.206;24.142;2023-03-01T05:55:10;22.60;;;12.38;;
12214;SDS011;6170;42.206;24.142;2023-03-01T05:57:37;22.20;;;11.02;;
12214;SDS011;6170;42.206;24.142;2023-03-01T06:00:04;19.88;;;11.00;;
12214;SDS011;6170;42.206;24.142;2023-03-01T06:02:32;19.20;;;10.15;;
12214;SDS011;6170;42.206;24.142;2023-03-01T06:04:59;17.27;;;9.60;;
12214;SDS011;6170;42.206;24.142;2023-03-01T06:07:27;14.95;;;9.65;;
12214;SDS011;6170;42.206;24.142;2023-03-01T06:09:54;16.98;;;9.13;;
12214;SDS011;6170;42.206;24.142;2023-03-01T06:12:21;18.05;;;9.93;;
12214;SDS011;6170;42.206;24.142;2023-03-01T06:14:48;14.27;;;9.07;;
12214;SDS011;6170;42.206;24.142;2023-03-01T06:17:15;14.95;;;9.20;;
12214;SDS011;6170;42.206;24.142;2023-03-01T06:19:42;15.25;;;9.68;;
12214;SDS011;6170;42.206;24.142;2023-03-01T06:22:09;16.85;;;9.30;;
12214;SDS011;6170;42.206;24.142;2023-03-01T06:24:38;15.60;;;9.00;;
12214;SDS011;6170;42.206;24.142;2023-03-01T06:27:04;18.88;;;9.50;;
12214;SDS011;6170;42.206;24.142;2023-03-01T06:29:32;18.23;;;10.15;;
12214;SDS011;6170;42.206;24.142;2023-03-01T06:31:58;17.48;;;9.88;;
12214;SDS011;6170;42.206;24.142;2023-03-01T06:34:25;17.25;;;9.80;;
12214;SDS011;6170;42.206;24.142;2023-03-01T06:36:52;20.67;;;10.65;;
12214;SDS011;6170;42.206;24.142;2023-03-01T06:39:19;19.77;;;10.43;;
12214;SDS011;6170;42.206;24.142;2023-03-01T06:41:48;22.42;;;11.05;;
12214;SDS011;6170;42.206;24.142;2023-03-01T06:44:15;19.90;;;11.82;;
12214;SDS011;6170;42.206;24.142;2023-03-01T06:46:42;19.35;;;11.45;;
12214;SDS011;6170;42.206;24.142;2023-03-01T06:49:09;20.60;;;12.10;;
12214;SDS011;6170;42.206;24.142;2023-03-01T06:51:36;21.92;;;12.75;;
12214;SDS011;6170;42.206;24.142;2023-03-01T06:54:03;22.75;;;13.60;;
12214;SDS011;6170;42.206;24.142;2023-03-01T06:56:30;22.10;;;12.95;;
12214;SDS011;6170;42.206;24.142;2023-03-01T06:58:58;20.90;;;13.15;;
12214;SDS011;6170;42.206;24.142;2023-03-01T07:01:25;22.10;;;12.43;;
12214;SDS011;6170;42.206;24.142;2023-03-01T07:03:52;21.02;;;12.25;;
12214;SDS011;6170;42.206;24.142;2023-03-01T07:06:19;18.70;;;11.50;;
12214;SDS011;6170;42.206;24.142;2023-03-01T07:08:47;17.15;;;10.23;;
12214;SDS011;6170;42.206;24.142;2023-03-01T07:11:14;20.23;;;11.68;;
12214;SDS011;6170;42.206;24.142;2023-03-01T07:13:41;17.00;;;11.10;;
12214;SDS011;6170;42.206;24.142;2023-03-01T07:16:10;16.70;;;9.85;;
12214;SDS011;6170;42.206;24.142;2023-03-01T07:18:37;16.10;;;9.88;;
12214;SDS011;6170;42.206;24.142;2023-03-01T07:21:04;16.67;;;10.65;;
12214;SDS011;6170;42.206;24.142;2023-03-01T07:23:32;14.95;;;9.90;;
12214;SDS011;6170;42.206;24.142;2023-03-01T07:25:59;16.20;;;10.25;;
12214;SDS011;6170;42.206;24.142;2023-03-01T07:28:26;16.98;;;10.00;;
12214;SDS011;6170;42.206;24.142;2023-03-01T07:30:54;16.00;;;9.85;;
12214;SDS011;6170;42.206;24.142;2023-03-01T07:33:22;19.17;;;10.23;;
12214;SDS011;6170;42.206;24.142;2023-03-01T07:35:55;15.98;;;10.25;;
12214;SDS011;6170;42.206;24.142;2023-03-01T07:38:24;17.10;;;9.85;;
12214;SDS011;6170;42.206;24.142;2023-03-01T07:40:50;14.73;;;9.20;;
12214;SDS011;6170;42.206;24.142;2023-03-01T07:43:17;11.35;;;7.55;;
12214;SDS011;6170;42.206;24.142;2023-03-01T07:45:45;10.45;;;7.43;;
12214;SDS011;6170;42.206;24.142;2023-03-01T07:48:12;12.05;;;7.65;;
12214;SDS011;6170;42.206;24.142;2023-03-01T07:50:40;12.52;;;7.75;;
12214;SDS011;6170;42.206;24.142;2023-03-01T07:53:08;11.63;;;7.22;;
12214;SDS011;6170;42.206;24.142;2023-03-01T07:55:35;12.18;;;6.90;;
12214;SDS011;6170;42.206;24.142;2023-03-01T07:58:02;12.45;;;7.60;;
12214;SDS011;6170;42.206;24.142;2023-03-01T08:00:29;10.95;;;7.82;;
12214;SDS011;6170;42.206;24.142;2023-03-01T08:02:58;11.75;;;7.88;;
12214;SDS011;6170;42.206;24.142;2023-03-01T08:05:26;10.63;;;7.47;;
12214;SDS011;6170;42.206;24.142;2023-03-01T08:07:54;11.20;;;7.63;;
12214;SDS011;6170;42.206;24.142;2023-03-01T08:10:21;13.82;;;8.55;;
12214;SDS011;6170;42.206;24.142;2023-03-01T08:12:50;18.95;;;10.15;;
12214;SDS011;6170;42.206;24.142;2023-03-01T08:15:17;15.48;;;9.00;;
12214;SDS011;6170;42.206;24.142;2023-03-01T08:17:45;15.32;;;8.50;;
12214;SDS011;6170;42.206;24.142;2023-03-01T08:20:12;15.93;;;9.35;;
12214;SDS011;6170;42.206;24.142;2023-03-01T08:22:39;14.00;;;8.45;;
12214;SDS011;6170;42.206;24.142;2023-03-01T08:25:07;10.57;;;7.60;;
12214;SDS011;6170;42.206;24.142;2023-03-01T08:27:35;12.15;;;7.35;;
12214;SDS011;6170;42.206;24.142;2023-03-01T08:30:02;10.30;;;7.25;;
12214;SDS011;6170;42.206;24.142;2023-03-01T08:32:29;16.35;;;8.82;;
12214;SDS011;6170;42.206;24.142;2023-03-01T08:34:56;13.18;;;8.57;;
12214;SDS011;6170;42.206;24.142;2023-03-01T08:37:23;15.20;;;7.85;;
12214;SDS011;6170;42.206;24.142;2023-03-01T08:39:50;14.63;;;8.63;;
12214;SDS011;6170;42.206;24.142;2023-03-01T08:42:18;12.43;;;8.45;;
12214;SDS011;6170;42.206;24.142;2023-03-01T08:44:45;11.18;;;7.70;;
12214;SDS011;6170;42.206;24.142;2023-03-01T08:47:12;10.45;;;7.95;;
12214;SDS011;6170;42.206;24.142;2023-03-01T08:49:40;11.25;;;7.53;;
12214;SDS011;6170;42.206;24.142;2023-03-01T08:52:07;10.15;;;7.13;;
12214;SDS011;6170;42.206;24.142;2023-03-01T08:54:34;7.93;;;5.85;;
12214;SDS011;6170;42.206;24.142;2023-03-01T08:57:01;10.02;;;6.63;;
12214;SDS011;6170;42.206;24.142;2023-03-01T08:59:30;11.02;;;7.70;;
12214;SDS011;6170;42.206;24.142;2023-03-01T09:02:02;14.23;;;8.15;;
12214;SDS011;6170;42.206;24.142;2023-03-01T09:04:29;14.18;;;8.07;;
12214;SDS011;6170;42.206;24.142;2023-03-01T09:06:56;12.40;;;7.68;;
12214;SDS011;6170;42.206;24.142;2023-03-01T09:09:23;11.48;;;6.78;;
12214;SDS011;6170;42.206;24.142;2023-03-01T09:11:50;8.73;;;6.40;;
12214;SDS011;6170;42.206;24.142;2023-03-01T09:14:17;10.63;;;5.95;;
12214;SDS011;6170;42.206;24.142;2023-03-01T09:16:46;8.75;;;5.97;;
12214;SDS011;6170;42.206;24.142;2023-03-01T09:19:13;10.68;;;6.68;;
12214;SDS011;6170;42.206;24.142;2023-03-01T09:21:40;8.50;;;6.13;;
12214;SDS011;6170;42.206;24.142;2023-03-01T09:24:18;7.45;;;5.72;;
12214;SDS011;6170;42.206;24.142;2023-03-01T09:26:46;10.05;;;6.85;;
12214;SDS011;6170;42.206;24.142;2023-03-01T09:29:13;7.78;;;5.88;;
12214;SDS011;6170;42.206;24.142;2023-03-01T09:31:41;7.90;;;5.88;;
12214;SDS011;6170;42.206;24.142;2023-03-01T09:34:10;7.63;;;5.72;;
12214;SDS011;6170;42.206;24.142;2023-03-01T09:36:38;8.75;;;6.53;;
12214;SDS011;6170;42.206;24.142;2023-03-01T09:39:06;8.68;;;5.78;;
12214;SDS011;6170;42.206;24.142;2023-03-01T09:44:21;8.85;;;5.88;;
12214;SDS011;6170;42.206;24.142;2023-03-01T09:46:55;8.48;;;5.97;;
12214;SDS011;6170;42.206;24.142;2023-03-01T09:49:25;8.82;;;6.57;;
12214;SDS011;6170;42.206;24.142;2023-03-01T09:51:57;11.18;;;6.65;;
12214;SDS011;6170;42.206;24.142;2023-03-01T09:54:27;11.40;;;6.95;;
12214;SDS011;6170;42.206;24.142;2023-03-01T09:57:01;9.68;;;6.50;;
12214;SDS011;6170;42.206;24.142;2023-03-01T09:59:36;8.60;;;6.68;;
12214;SDS011;6170;42.206;24.142;2023-03-01T10:02:23;7.93;;;6.00;;
12214;SDS011;6170;42.206;24.142;2023-03-01T10:04:59;7.93;;;6.20;;
12214;SDS011;6170;42.206;24.142;2023-03-01T10:07:42;11.32;;;6.43;;
12214;SDS011;6170;42.206;24.142;2023-03-01T10:10:17;7.32;;;5.90;;
12214;SDS011;6170;42.206;24.142;2023-03-01T10:12:54;9.30;;;4.85;;
12214;SDS011;6170;42.206;24.142;2023-03-01T10:15:24;8.63;;;6.03;;
12214;SDS011;6170;42.206;24.142;2023-03-01T10:18:00;8.43;;;5.15;;
12214;SDS011;6170;42.206;24.142;2023-03-01T10:20:36;11.10;;;6.00;;
12214;SDS011;6170;42.206;24.142;2023-03-01T10:23:12;7.38;;;5.68;;
12214;SDS011;6170;42.206;24.142;2023-03-01T10:25:52;9.02;;;5.97;;
12214;SDS011;6170;42.206;24.142;2023-03-01T10:28:28;9.25;;;6.00;;
12214;SDS011;6170;42.206;24.142;2023-03-01T10:30:57;12.07;;;7.35;;
12214;SDS011;6170;42.206;24.142;2023-03-01T10:33:26;11.40;;;7.20;;
12214;SDS011;6170;42.206;24.142;2023-03-01T10:35:57;8.57;;;6.63;;
12214;SDS011;6170;42.206;24.142;2023-03-01T10:38:24;11.15;;;7.28;;
12214;SDS011;6170;42.206;24.142;2023-03-01T10:40:52;9.63;;;6.95;;
12214;SDS011;6170;42.206;24.142;2023-03-01T10:43:22;13.52;;;7.85;;
12214;SDS011;6170;42.206;24.142;2023-03-01T10:45:50;11.18;;;7.70;;
12214;SDS011;6170;42.206;24.142;2023-03-01T10:48:18;11.50;;;7.78;;
12214;SDS011;6170;42.206;24.142;2023-03-01T10:50:50;21.35;;;9.82;;
12214;SDS011;6170;42.206;24.142;2023-03-01T10:53:33;14.30;;;10.05;;
12214;SDS011;6170;42.206;24.142;2023-03-01T10:56:02;13.90;;;9.40;;
12214;SDS011;6170;42.206;24.142;2023-03-01T10:58:32;11.23;;;8.43;;
12214;SDS011;6170;42.206;24.142;2023-03-01T11:01:00;13.52;;;8.25;;
12214;SDS011;6170;42.206;24.142;2023-03-01T11:03:29;11.40;;;7.07;;
12214;SDS011;6170;42.206;24.142;2023-03-01T11:05:59;9.60;;;6.68;;
12214;SDS011;6170;42.206;24.142;2023-03-01T11:08:34;10.45;;;7.57;;
12214;SDS011;6170;42.206;24.142;2023-03-01T11:11:12;9.95;;;7.63;;
12214;SDS011;6170;42.206;24.142;2023-03-01T11:13:53;14.23;;;8.88;;
12214;SDS011;6170;42.206;24.142;2023-03-01T11:16:23;13.68;;;8.65;;
12214;SDS011;6170;42.206;24.142;2023-03-01T11:18:59;11.43;;;7.82;;
12214;SDS011;6170;42.206;24.142;2023-03-01T11:21:31;10.20;;;7.43;;
12214;SDS011;6170;42.206;24.142;2023-03-01T11:24:03;12.40;;;8.38;;
12214;SDS011;6170;42.206;24.142;2023-03-01T11:26:34;11.02;;;8.50;;
12214;SDS011;6170;42.206;24.142;2023-03-01T11:29:06;18.55;;;9.23;;
12214;SDS011;6170;42.206;24.142;2023-03-01T11:31:39;12.25;;;8.75;;
12214;SDS011;6170;42.206;24.142;2023-03-01T11:34:10;19.38;;;8.20;;
12214;SDS011;6170;42.206;24.142;2023-03-01T11:36:40;11.70;;;8.88;;
12214;SDS011;6170;42.206;24.142;2023-03-01T11:39:15;13.60;;;9.30;;
12214;SDS011;6170;42.206;24.142;2023-03-01T11:41:48;11.80;;;8.50;;
12214;SDS011;6170;42.206;24.142;2023-03-01T11:44:26;12.38;;;8.85;;
12214;SDS011;6170;42.206;24.142;2023-03-01T11:47:09;16.52;;;9.27;;
12214;SDS011;6170;42.206;24.142;2023-03-01T11:52:48;10.90;;;8.27;;
12214;SDS011;6170;42.206;24.142;2023-03-01T11:58:27;12.55;;;9.10;;
12214;SDS011;6170;42.206;24.142;2023-03-01T12:01:10;12.48;;;8.90;;
12214;SDS011;6170;42.206;24.142;2023-03-01T12:06:50;11.73;;;9.40;;
12214;SDS011;6170;42.206;24.142;2023-03-01T12:09:31;16.33;;;8.95;;
12214;SDS011;6170;42.206;24.142;2023-03-01T12:15:20;15.40;;;9.93;;
12214;SDS011;6170;42.206;24.142;2023-03-01T12:18:07;21.27;;;12.40;;
12214;SDS011;6170;42.206;24.142;2023-03-01T12:20:47;18.60;;;12.10;;
12214;SDS011;6170;42.206;24.142;2023-03-01T12:23:43;21.33;;;14.27;;
12214;SDS011;6170;42.206;24.142;2023-03-01T12:26:29;29.98;;;14.73;;
12214;SDS011;6170;42.206;24.142;2023-03-01T12:29:13;17.08;;;11.27;;
12214;SDS011;6170;42.206;24.142;2023-03-01T12:32:13;20.15;;;12.02;;
12214;SDS011;6170;42.206;24.142;2023-03-01T12:34:48;13.52;;;10.45;;
12214;SDS011;6170;42.206;24.142;2023-03-01T12:37:50;17.30;;;10.63;;
12214;SDS011;6170;42.206;24.142;2023-03-01T12:40:29;18.17;;;11.80;;
12214;SDS011;6170;42.206;24.142;2023-03-01T12:43:19;17.90;;;11.00;;
12214;SDS011;6170;42.206;24.142;2023-03-01T12:45:57;17.42;;;10.95;;
12214;SDS011;6170;42.206;24.142;2023-03-01T12:48:37;20.38;;;12.13;;
12214;SDS011;6170;42.206;24.142;2023-03-01T12:51:15;20.27;;;12.02;;
12214;SDS011;6170;42.206;24.142;2023-03-01T12:53:47;27.10;;;11.63;;
12214;SDS011;6170;42.206;24.142;2023-03-01T12:56:16;20.67;;;12.52;;
12214;SDS011;6170;42.206;24.142;2023-03-01T12:58:49;20.27;;;11.95;;
12214;SDS011;6170;42.206;24.142;2023-03-01T13:01:29;16.08;;;11.77;;
12214;SDS011;6170;42.206;24.142;2023-03-01T13:04:07;20.67;;;12.05;;
12214;SDS011;6170;42.206;24.142;2023-03-01T13:06:44;20.55;;;13.02;;
12214;SDS011;6170;42.206;24.142;2023-03-01T13:09:23;23.23;;;12.80;;
12214;SDS011;6170;42.206;24.142;2023-03-01T13:11:57;20.30;;;12.13;;
12214;SDS011;6170;42.206;24.142;2023-03-01T13:14:37;21.50;;;11.55;;
12214;SDS011;6170;42.206;24.142;2023-03-01T13:20:15;20.38;;;12.27;;
12214;SDS011;6170;42.206;24.142;2023-03-01T13:22:44;20.85;;;12.23;;
12214;SDS011;6170;42.206;24.142;2023-03-01T13:25:13;22.40;;;12.68;;
12214;SDS011;6170;42.206;24.142;2023-03-01T13:27:44;18.63;;;11.55;;
12214;SDS011;6170;42.206;24.142;2023-03-01T13:36:25;14.52;;;10.60;;
12214;SDS011;6170;42.206;24.142;2023-03-01T13:42:25;15.25;;;10.43;;
12214;SDS011;6170;42.206;24.142;2023-03-01T13:48:02;15.23;;;9.65;;
12214;SDS011;6170;42.206;24.142;2023-03-01T13:50:38;17.27;;;11.02;;
12214;SDS011;6170;42.206;24.142;2023-03-01T13:53:13;18.48;;;11.15;;
12214;SDS011;6170;42.206;24.142;2023-03-01T13:55:44;17.52;;;10.35;;
12214;SDS011;6170;42.206;24.142;2023-03-01T13:58:16;16.42;;;10.63;;
12214;SDS011;6170;42.206;24.142;2023-03-01T14:00:54;17.80;;;10.60;;
12214;SDS011;6170;42.206;24.142;2023-03-01T14:03:22;21.42;;;11.82;;
12214;SDS011;6170;42.206;24.142;2023-03-01T14:06:04;16.25;;;11.52;;
12214;SDS011;6170;42.206;24.142;2023-03-01T14:08:33;15.50;;;11.32;;
12214;SDS011;6170;42.206;24.142;2023-03-01T14:11:06;15.00;;;10.95;;
12214;SDS011;6170;42.206;24.142;2023-03-01T14:13:53;14.50;;;9.98;;
12214;SDS011;6170;42.206;24.142;2023-03-01T14:16:31;13.85;;;10.15;;
12214;SDS011;6170;42.206;24.142;2023-03-01T14:19:13;18.75;;;10.15;;
12214;SDS011;6170;42.206;24.142;2023-03-01T14:21:45;13.93;;;9.68;;
12214;SDS011;6170;42.206;24.142;2023-03-01T14:24:22;16.60;;;10.43;;
12214;SDS011;6170;42.206;24.142;2023-03-01T14:26:49;14.98;;;9.27;;
12214;SDS011;6170;42.206;24.142;2023-03-01T14:29:23;14.90;;;9.05;;
12214;SDS011;6170;42.206;24.142;2023-03-01T14:31:51;17.58;;;8.95;;
12214;SDS011;6170;42.206;24.142;2023-03-01T14:34:19;19.33;;;9.80;;
12214;SDS011;6170;42.206;24.142;2023-03-01T14:36:49;15.75;;;10.38;;
12214;SDS011;6170;42.206;24.142;2023-03-01T14:39:17;12.88;;;9.05;;
12214;SDS011;6170;42.206;24.142;2023-03-01T14:41:46;15.05;;;9.27;;
12214;SDS011;6170;42.206;24.142;2023-03-01T14:44:14;12.57;;;8.80;;
12214;SDS011;6170;42.206;24.142;2023-03-01T14:46:51;13.60;;;8.90;;
12214;SDS011;6170;42.206;24.142;2023-03-01T14:49:20;11.80;;;8.40;;
12214;SDS011;6170;42.206;24.142;2023-03-01T14:51:52;11.50;;;8.52;;
12214;SDS011;6170;42.206;24.142;2023-03-01T14:54:23;12.68;;;8.52;;
12214;SDS011;6170;42.206;24.142;2023-03-01T14:56:52;12.98;;;8.70;;
12214;SDS011;6170;42.206;24.142;2023-03-01T14:59:21;14.75;;;9.40;;
12214;SDS011;6170;42.206;24.142;2023-03-01T15:01:49;13.80;;;10.20;;
12214;SDS011;6170;42.206;24.142;2023-03-01T15:04:19;14.27;;;10.02;;
12214;SDS011;6170;42.206;24.142;2023-03-01T15:06:47;15.50;;;10.85;;
12214;SDS011;6170;42.206;24.142;2023-03-01T15:09:19;14.90;;;10.75;;
12214;SDS011;6170;42.206;24.142;2023-03-01T15:11:47;15.60;;;10.57;;
12214;SDS011;6170;42.206;24.142;2023-03-01T15:14:26;15.18;;;10.00;;
12214;SDS011;6170;42.206;24.142;2023-03-01T15:16:55;13.88;;;10.20;;
12214;SDS011;6170;42.206;24.142;2023-03-01T15:19:23;15.38;;;10.57;;
12214;SDS011;6170;42.206;24.142;2023-03-01T15:21:55;13.52;;;9.98;;